sensor_id;sensor_type;location;lat;lon;timestamp;P1;durP1;ratioP1;P2;durP2;ratioP2
52354;SDS011;38286;51.156;17.038;2023-04-24T00:00:55;17.17;;;12.15;;
52354;SDS011;38286;51.156;17.038;2023-04-24T00:03:25;19.17;;;11.90;;
52354;SDS011;38286;51.156;17.038;2023-04-24T00:05:51;20.85;;;12.57;;
52354;SDS011;38286;51.156;17.038;2023-04-24T00:08:17;20.55;;;13.68;;
52354;SDS011;38286;51.156;17.038;2023-04-24T00:10:43;18.30;;;12.18;;
52354;SDS011;38286;51.156;17.038;2023-04-24T00:13:10;22.23;;;14.05;;
52354;SDS011;38286;51.156;17.038;2023-04-24T00:15:35;18.20;;;12.20;;
52354;SDS011;38286;51.156;17.038;2023-04-24T00:18:02;18.48;;;12.45;;
52354;SDS011;38286;51.156;17.038;2023-04-24T00:20:28;20.27;;;13.23;;
52354;SDS011;38286;51.156;17.038;2023-04-24T00:22:54;17.30;;;12.68;;
52354;SDS011;38286;51.156;17.038;2023-04-24T00:25:21;20.67;;;12.77;;
52354;SDS011;38286;51.156;17.038;2023-04-24T00:27:47;19.75;;;12.48;;
52354;SDS011;38286;51.156;17.038;2023-04-24T00:30:13;19.92;;;13.75;;
52354;SDS011;38286;51.156;17.038;2023-04-24T00:32:39;20.17;;;13.73;;
52354;SDS011;38286;51.156;17.038;2023-04-24T00:35:05;18.48;;;12.85;;
52354;SDS011;38286;51.156;17.038;2023-04-24T00:37:32;20.23;;;13.25;;
52354;SDS011;38286;51.156;17.038;2023-04-24T00:39:58;18.48;;;13.07;;
52354;SDS011;38286;51.156;17.038;2023-04-24T00:42:24;20.58;;;13.23;;
52354;SDS011;38286;51.156;17.038;2023-04-24T00:44:50;21.23;;;14.02;;
52354;SDS011;38286;51.156;17.038;2023-04-24T00:47:16;21.67;;;14.52;;
52354;SDS011;38286;51.156;17.038;2023-04-24T00:49:42;24.80;;;15.10;;
52354;SDS011;38286;51.156;17.038;2023-04-24T00:52:08;23.55;;;15.15;;
52354;SDS011;38286;51.156;17.038;2023-04-24T00:54:35;21.75;;;15.05;;
52354;SDS011;38286;51.156;17.038;2023-04-24T00:57:02;22.20;;;14.68;;
52354;SDS011;38286;51.156;17.038;2023-04-24T00:59:28;21.60;;;15.38;;
52354;SDS011;38286;51.156;17.038;2023-04-24T01:01:55;24.17;;;15.25;;
52354;SDS011;38286;51.156;17.038;2023-04-24T01:04:21;27.58;;;15.38;;
52354;SDS011;38286;51.156;17.038;2023-04-24T01:06:47;23.35;;;15.70;;
52354;SDS011;38286;51.156;17.038;2023-04-24T01:09:14;23.70;;;15.05;;
52354;SDS011;38286;51.156;17.038;2023-04-24T01:11:41;22.80;;;16.23;;
52354;SDS011;38286;51.156;17.038;2023-04-24T01:14:08;26.25;;;16.38;;
52354;SDS011;38286;51.156;17.038;2023-04-24T01:16:34;25.45;;;16.70;;
52354;SDS011;38286;51.156;17.038;2023-04-24T01:19:00;24.73;;;17.83;;
52354;SDS011;38286;51.156;17.038;2023-04-24T01:21:26;26.83;;;17.60;;
52354;SDS011;38286;51.156;17.038;2023-04-24T01:23:54;28.63;;;18.33;;
52354;SDS011;38286;51.156;17.038;2023-04-24T01:26:21;26.23;;;18.05;;
52354;SDS011;38286;51.156;17.038;2023-04-24T01:28:48;26.05;;;17.55;;
52354;SDS011;38286;51.156;17.038;2023-04-24T01:31:14;28.50;;;18.20;;
52354;SDS011;38286;51.156;17.038;2023-04-24T01:33:41;29.00;;;17.25;;
52354;SDS011;38286;51.156;17.038;2023-04-24T01:36:08;28.88;;;17.90;;
52354;SDS011;38286;51.156;17.038;2023-04-24T01:38:36;27.52;;;16.23;;
52354;SDS011;38286;51.156;17.038;2023-04-24T01:41:02;27.35;;;16.85;;
52354;SDS011;38286;51.156;17.038;2023-04-24T01:43:28;25.30;;;16.60;;
52354;SDS011;38286;51.156;17.038;2023-04-24T01:45:54;23.80;;;16.17;;
52354;SDS011;38286;51.156;17.038;2023-04-24T01:48:21;25.63;;;16.40;;
52354;SDS011;38286;51.156;17.038;2023-04-24T01:50:47;26.55;;;17.85;;
52354;SDS011;38286;51.156;17.038;2023-04-24T01:53:13;26.08;;;16.88;;
52354;SDS011;38286;51.156;17.038;2023-04-24T01:55:40;26.95;;;16.15;;
52354;SDS011;38286;51.156;17.038;2023-04-24T01:58:06;25.98;;;16.33;;
52354;SDS011;38286;51.156;17.038;2023-04-24T02:00:33;24.17;;;16.50;;
52354;SDS011;38286;51.156;17.038;2023-04-24T02:02:59;25.25;;;17.02;;
52354;SDS011;38286;51.156;17.038;2023-04-24T02:05:27;26.10;;;16.73;;
52354;SDS011;38286;51.156;17.038;2023-04-24T02:07:53;24.52;;;17.13;;
52354;SDS011;38286;51.156;17.038;2023-04-24T02:10:19;22.80;;;16.15;;
52354;SDS011;38286;51.156;17.038;2023-04-24T02:12:45;24.77;;;15.68;;
52354;SDS011;38286;51.156;17.038;2023-04-24T02:15:11;25.15;;;15.93;;
52354;SDS011;38286;51.156;17.038;2023-04-24T02:17:38;26.05;;;16.50;;
52354;SDS011;38286;51.156;17.038;2023-04-24T02:20:04;24.95;;;15.57;;
52354;SDS011;38286;51.156;17.038;2023-04-24T02:22:32;23.80;;;15.15;;
52354;SDS011;38286;51.156;17.038;2023-04-24T02:24:58;24.40;;;15.85;;
52354;SDS011;38286;51.156;17.038;2023-04-24T02:27:24;24.63;;;15.85;;
52354;SDS011;38286;51.156;17.038;2023-04-24T02:29:49;29.02;;;16.80;;
52354;SDS011;38286;51.156;17.038;2023-04-24T02:32:16;25.27;;;16.73;;
52354;SDS011;38286;51.156;17.038;2023-04-24T02:35:01;24.67;;;16.30;;
52354;SDS011;38286;51.156;17.038;2023-04-24T02:37:27;26.73;;;17.10;;
52354;SDS011;38286;51.156;17.038;2023-04-24T02:39:53;27.17;;;17.08;;
52354;SDS011;38286;51.156;17.038;2023-04-24T02:42:19;22.70;;;15.77;;
52354;SDS011;38286;51.156;17.038;2023-04-24T02:44:46;23.45;;;15.35;;
52354;SDS011;38286;51.156;17.038;2023-04-24T02:47:12;25.90;;;16.90;;
52354;SDS011;38286;51.156;17.038;2023-04-24T02:49:38;27.50;;;16.88;;
52354;SDS011;38286;51.156;17.038;2023-04-24T02:52:04;26.42;;;16.45;;
52354;SDS011;38286;51.156;17.038;2023-04-24T02:54:30;27.83;;;17.40;;
52354;SDS011;38286;51.156;17.038;2023-04-24T02:56:56;28.63;;;17.05;;
52354;SDS011;38286;51.156;17.038;2023-04-24T02:59:22;24.13;;;16.27;;
52354;SDS011;38286;51.156;17.038;2023-04-24T03:01:48;27.60;;;15.75;;
52354;SDS011;38286;51.156;17.038;2023-04-24T03:04:14;25.83;;;16.45;;
52354;SDS011;38286;51.156;17.038;2023-04-24T03:06:41;21.42;;;15.05;;
52354;SDS011;38286;51.156;17.038;2023-04-24T03:09:07;25.05;;;15.20;;
52354;SDS011;38286;51.156;17.038;2023-04-24T03:11:33;23.73;;;15.50;;
52354;SDS011;38286;51.156;17.038;2023-04-24T03:13:59;25.52;;;15.90;;
52354;SDS011;38286;51.156;17.038;2023-04-24T03:16:25;25.75;;;16.00;;
52354;SDS011;38286;51.156;17.038;2023-04-24T03:18:51;24.42;;;16.02;;
52354;SDS011;38286;51.156;17.038;2023-04-24T03:21:17;23.95;;;15.75;;
52354;SDS011;38286;51.156;17.038;2023-04-24T03:23:43;25.50;;;16.30;;
52354;SDS011;38286;51.156;17.038;2023-04-24T03:26:09;24.67;;;16.98;;
52354;SDS011;38286;51.156;17.038;2023-04-24T03:28:35;27.73;;;18.15;;
52354;SDS011;38286;51.156;17.038;2023-04-24T03:31:02;28.55;;;18.23;;
52354;SDS011;38286;51.156;17.038;2023-04-24T03:33:28;27.05;;;17.52;;
52354;SDS011;38286;51.156;17.038;2023-04-24T03:35:55;28.10;;;18.55;;
52354;SDS011;38286;51.156;17.038;2023-04-24T03:38:20;30.42;;;18.38;;
52354;SDS011;38286;51.156;17.038;2023-04-24T03:40:46;27.67;;;18.45;;
52354;SDS011;38286;51.156;17.038;2023-04-24T03:43:12;29.40;;;18.13;;
52354;SDS011;38286;51.156;17.038;2023-04-24T03:45:38;27.10;;;18.25;;
52354;SDS011;38286;51.156;17.038;2023-04-24T03:48:04;30.17;;;18.02;;
52354;SDS011;38286;51.156;17.038;2023-04-24T03:50:30;26.92;;;17.80;;
52354;SDS011;38286;51.156;17.038;2023-04-24T03:52:56;23.73;;;16.88;;
52354;SDS011;38286;51.156;17.038;2023-04-24T03:55:22;25.55;;;17.35;;
52354;SDS011;38286;51.156;17.038;2023-04-24T03:57:48;26.08;;;17.75;;
52354;SDS011;38286;51.156;17.038;2023-04-24T04:00:14;26.40;;;17.30;;
52354;SDS011;38286;51.156;17.038;2023-04-24T04:02:41;25.90;;;17.77;;
52354;SDS011;38286;51.156;17.038;2023-04-24T04:05:07;27.63;;;16.77;;
52354;SDS011;38286;51.156;17.038;2023-04-24T04:07:33;26.42;;;17.67;;
52354;SDS011;38286;51.156;17.038;2023-04-24T04:10:00;27.85;;;18.88;;
52354;SDS011;38286;51.156;17.038;2023-04-24T04:12:25;30.70;;;19.30;;
52354;SDS011;38286;51.156;17.038;2023-04-24T04:14:51;27.17;;;18.08;;
52354;SDS011;38286;51.156;17.038;2023-04-24T04:17:17;30.08;;;18.52;;
52354;SDS011;38286;51.156;17.038;2023-04-24T04:19:43;29.42;;;18.73;;
52354;SDS011;38286;51.156;17.038;2023-04-24T04:22:10;26.75;;;19.08;;
52354;SDS011;38286;51.156;17.038;2023-04-24T04:24:36;29.85;;;19.02;;
52354;SDS011;38286;51.156;17.038;2023-04-24T04:27:03;28.48;;;18.65;;
52354;SDS011;38286;51.156;17.038;2023-04-24T04:29:30;26.48;;;17.98;;
52354;SDS011;38286;51.156;17.038;2023-04-24T04:31:57;30.42;;;18.15;;
52354;SDS011;38286;51.156;17.038;2023-04-24T04:34:23;27.17;;;17.23;;
52354;SDS011;38286;51.156;17.038;2023-04-24T04:36:49;24.67;;;17.95;;
52354;SDS011;38286;51.156;17.038;2023-04-24T04:39:16;24.35;;;17.58;;
52354;SDS011;38286;51.156;17.038;2023-04-24T04:41:44;26.17;;;17.33;;
52354;SDS011;38286;51.156;17.038;2023-04-24T04:44:12;23.83;;;17.45;;
52354;SDS011;38286;51.156;17.038;2023-04-24T04:46:39;27.92;;;18.70;;
52354;SDS011;38286;51.156;17.038;2023-04-24T04:49:05;27.67;;;18.50;;
52354;SDS011;38286;51.156;17.038;2023-04-24T04:51:31;29.38;;;19.95;;
52354;SDS011;38286;51.156;17.038;2023-04-24T04:53:57;30.10;;;19.10;;
52354;SDS011;38286;51.156;17.038;2023-04-24T04:56:23;26.00;;;16.85;;
52354;SDS011;38286;51.156;17.038;2023-04-24T04:58:50;22.70;;;15.85;;
52354;SDS011;38286;51.156;17.038;2023-04-24T05:01:16;18.60;;;14.20;;
52354;SDS011;38286;51.156;17.038;2023-04-24T05:03:42;25.25;;;14.85;;
52354;SDS011;38286;51.156;17.038;2023-04-24T05:06:08;19.65;;;14.27;;
52354;SDS011;38286;51.156;17.038;2023-04-24T05:08:35;23.38;;;15.55;;
52354;SDS011;38286;51.156;17.038;2023-04-24T05:11:01;19.73;;;14.25;;
52354;SDS011;38286;51.156;17.038;2023-04-24T05:13:27;23.27;;;15.18;;
52354;SDS011;38286;51.156;17.038;2023-04-24T05:15:53;20.67;;;14.27;;
52354;SDS011;38286;51.156;17.038;2023-04-24T05:18:19;21.83;;;13.57;;
52354;SDS011;38286;51.156;17.038;2023-04-24T05:20:45;22.00;;;14.02;;
52354;SDS011;38286;51.156;17.038;2023-04-24T05:23:11;19.98;;;13.80;;
52354;SDS011;38286;51.156;17.038;2023-04-24T05:25:37;20.30;;;13.32;;
52354;SDS011;38286;51.156;17.038;2023-04-24T05:28:04;17.02;;;12.85;;
52354;SDS011;38286;51.156;17.038;2023-04-24T05:30:31;19.25;;;12.48;;
52354;SDS011;38286;51.156;17.038;2023-04-24T05:32:57;16.02;;;11.95;;
52354;SDS011;38286;51.156;17.038;2023-04-24T05:35:22;16.67;;;12.77;;
52354;SDS011;38286;51.156;17.038;2023-04-24T05:37:49;21.38;;;12.32;;
52354;SDS011;38286;51.156;17.038;2023-04-24T05:40:15;17.40;;;11.98;;
52354;SDS011;38286;51.156;17.038;2023-04-24T05:42:41;15.48;;;11.60;;
52354;SDS011;38286;51.156;17.038;2023-04-24T05:45:07;18.17;;;10.93;;
52354;SDS011;38286;51.156;17.038;2023-04-24T05:47:34;21.27;;;11.07;;
52354;SDS011;38286;51.156;17.038;2023-04-24T05:50:00;15.50;;;10.27;;
52354;SDS011;38286;51.156;17.038;2023-04-24T05:52:27;13.60;;;9.60;;
52354;SDS011;38286;51.156;17.038;2023-04-24T05:54:52;14.60;;;9.65;;
52354;SDS011;38286;51.156;17.038;2023-04-24T05:57:19;11.77;;;8.40;;
52354;SDS011;38286;51.156;17.038;2023-04-24T05:59:45;11.93;;;8.82;;
52354;SDS011;38286;51.156;17.038;2023-04-24T06:02:11;10.07;;;7.82;;
52354;SDS011;38286;51.156;17.038;2023-04-24T06:04:36;10.45;;;7.63;;
52354;SDS011;38286;51.156;17.038;2023-04-24T06:07:03;11.52;;;7.65;;
52354;SDS011;38286;51.156;17.038;2023-04-24T06:09:28;9.07;;;7.75;;
52354;SDS011;38286;51.156;17.038;2023-04-24T06:11:55;12.93;;;7.85;;
52354;SDS011;38286;51.156;17.038;2023-04-24T06:14:21;11.75;;;7.60;;
52354;SDS011;38286;51.156;17.038;2023-04-24T06:16:47;10.95;;;7.20;;
52354;SDS011;38286;51.156;17.038;2023-04-24T06:19:13;11.55;;;7.65;;
52354;SDS011;38286;51.156;17.038;2023-04-24T06:21:40;11.15;;;7.63;;
52354;SDS011;38286;51.156;17.038;2023-04-24T06:24:05;21.27;;;7.65;;
52354;SDS011;38286;51.156;17.038;2023-04-24T06:26:32;8.65;;;6.55;;
52354;SDS011;38286;51.156;17.038;2023-04-24T06:28:57;12.57;;;7.82;;
52354;SDS011;38286;51.156;17.038;2023-04-24T06:31:25;12.00;;;7.38;;
52354;SDS011;38286;51.156;17.038;2023-04-24T06:33:51;11.15;;;6.30;;
52354;SDS011;38286;51.156;17.038;2023-04-24T06:36:17;15.88;;;6.72;;
52354;SDS011;38286;51.156;17.038;2023-04-24T06:38:43;11.38;;;6.40;;
52354;SDS011;38286;51.156;17.038;2023-04-24T06:41:09;9.55;;;6.47;;
52354;SDS011;38286;51.156;17.038;2023-04-24T06:43:35;10.30;;;6.45;;
52354;SDS011;38286;51.156;17.038;2023-04-24T06:46:02;12.60;;;6.97;;
52354;SDS011;38286;51.156;17.038;2023-04-24T06:48:28;11.13;;;6.57;;
52354;SDS011;38286;51.156;17.038;2023-04-24T06:50:55;10.30;;;6.40;;
52354;SDS011;38286;51.156;17.038;2023-04-24T06:53:21;10.10;;;5.97;;
52354;SDS011;38286;51.156;17.038;2023-04-24T06:55:47;10.23;;;6.03;;
52354;SDS011;38286;51.156;17.038;2023-04-24T06:58:13;12.32;;;5.70;;
52354;SDS011;38286;51.156;17.038;2023-04-24T07:00:40;8.70;;;6.00;;
52354;SDS011;38286;51.156;17.038;2023-04-24T07:03:06;8.77;;;6.43;;
52354;SDS011;38286;51.156;17.038;2023-04-24T07:05:32;12.15;;;6.05;;
52354;SDS011;38286;51.156;17.038;2023-04-24T07:08:00;11.07;;;6.05;;
52354;SDS011;38286;51.156;17.038;2023-04-24T07:10:27;9.18;;;6.25;;
52354;SDS011;38286;51.156;17.038;2023-04-24T07:12:54;9.68;;;6.43;;
52354;SDS011;38286;51.156;17.038;2023-04-24T07:15:22;9.45;;;6.10;;
52354;SDS011;38286;51.156;17.038;2023-04-24T07:18:06;8.55;;;5.75;;
52354;SDS011;38286;51.156;17.038;2023-04-24T07:20:32;9.25;;;5.43;;
52354;SDS011;38286;51.156;17.038;2023-04-24T07:22:59;10.10;;;6.25;;
52354;SDS011;38286;51.156;17.038;2023-04-24T07:25:25;9.73;;;6.22;;
52354;SDS011;38286;51.156;17.038;2023-04-24T07:27:51;9.30;;;5.80;;
52354;SDS011;38286;51.156;17.038;2023-04-24T07:30:18;10.05;;;6.35;;
52354;SDS011;38286;51.156;17.038;2023-04-24T07:32:44;11.50;;;5.88;;
52354;SDS011;38286;51.156;17.038;2023-04-24T07:35:10;8.10;;;5.88;;
52354;SDS011;38286;51.156;17.038;2023-04-24T07:37:36;7.75;;;6.43;;
52354;SDS011;38286;51.156;17.038;2023-04-24T07:40:02;7.30;;;6.00;;
52354;SDS011;38286;51.156;17.038;2023-04-24T07:42:28;13.40;;;6.13;;
52354;SDS011;38286;51.156;17.038;2023-04-24T07:44:56;9.18;;;5.93;;
52354;SDS011;38286;51.156;17.038;2023-04-24T07:47:22;8.48;;;6.13;;
52354;SDS011;38286;51.156;17.038;2023-04-24T07:49:48;7.28;;;5.75;;
52354;SDS011;38286;51.156;17.038;2023-04-24T07:52:14;8.75;;;6.25;;
52354;SDS011;38286;51.156;17.038;2023-04-24T07:54:40;6.30;;;5.40;;
52354;SDS011;38286;51.156;17.038;2023-04-24T07:57:06;7.18;;;4.95;;
52354;SDS011;38286;51.156;17.038;2023-04-24T07:59:34;6.25;;;4.55;;
52354;SDS011;38286;51.156;17.038;2023-04-24T08:01:59;5.18;;;4.43;;
52354;SDS011;38286;51.156;17.038;2023-04-24T08:04:27;6.45;;;4.90;;
52354;SDS011;38286;51.156;17.038;2023-04-24T08:06:53;5.30;;;4.50;;
52354;SDS011;38286;51.156;17.038;2023-04-24T08:09:19;8.48;;;5.15;;
52354;SDS011;38286;51.156;17.038;2023-04-24T08:11:45;6.82;;;5.07;;
52354;SDS011;38286;51.156;17.038;2023-04-24T08:14:11;7.35;;;5.05;;
52354;SDS011;38286;51.156;17.038;2023-04-24T08:16:38;6.85;;;4.78;;
52354;SDS011;38286;51.156;17.038;2023-04-24T08:19:04;7.63;;;4.82;;
52354;SDS011;38286;51.156;17.038;2023-04-24T08:21:30;6.50;;;4.65;;
52354;SDS011;38286;51.156;17.038;2023-04-24T08:23:57;6.18;;;4.85;;
52354;SDS011;38286;51.156;17.038;2023-04-24T08:26:23;7.70;;;4.80;;
52354;SDS011;38286;51.156;17.038;2023-04-24T08:28:49;7.25;;;4.40;;
52354;SDS011;38286;51.156;17.038;2023-04-24T08:31:15;6.00;;;4.60;;
52354;SDS011;38286;51.156;17.038;2023-04-24T08:33:41;8.10;;;4.65;;
52354;SDS011;38286;51.156;17.038;2023-04-24T08:36:10;7.90;;;5.38;;
52354;SDS011;38286;51.156;17.038;2023-04-24T08:38:36;6.35;;;5.10;;
52354;SDS011;38286;51.156;17.038;2023-04-24T08:41:02;6.07;;;4.63;;
52354;SDS011;38286;51.156;17.038;2023-04-24T08:43:29;8.13;;;4.80;;
52354;SDS011;38286;51.156;17.038;2023-04-24T08:45:56;6.95;;;4.93;;
52354;SDS011;38286;51.156;17.038;2023-04-24T08:48:22;7.22;;;5.03;;
52354;SDS011;38286;51.156;17.038;2023-04-24T08:50:50;5.25;;;4.47;;
52354;SDS011;38286;51.156;17.038;2023-04-24T08:53:17;5.55;;;4.40;;
52354;SDS011;38286;51.156;17.038;2023-04-24T08:55:43;8.35;;;4.63;;
52354;SDS011;38286;51.156;17.038;2023-04-24T08:58:13;8.85;;;5.10;;
52354;SDS011;38286;51.156;17.038;2023-04-24T09:00:39;5.93;;;4.70;;
52354;SDS011;38286;51.156;17.038;2023-04-24T09:03:09;6.45;;;4.90;;
52354;SDS011;38286;51.156;17.038;2023-04-24T09:05:35;7.20;;;4.43;;
52354;SDS011;38286;51.156;17.038;2023-04-24T09:08:02;6.82;;;4.28;;
52354;SDS011;38286;51.156;17.038;2023-04-24T09:10:30;7.97;;;4.80;;
52354;SDS011;38286;51.156;17.038;2023-04-24T09:12:56;5.97;;;3.85;;
52354;SDS011;38286;51.156;17.038;2023-04-24T09:15:26;8.52;;;4.93;;
52354;SDS011;38286;51.156;17.038;2023-04-24T09:17:52;7.95;;;4.30;;
52354;SDS011;38286;51.156;17.038;2023-04-24T09:20:18;7.45;;;4.10;;
52354;SDS011;38286;51.156;17.038;2023-04-24T09:22:45;4.95;;;3.80;;
52354;SDS011;38286;51.156;17.038;2023-04-24T09:25:11;4.53;;;4.00;;
52354;SDS011;38286;51.156;17.038;2023-04-24T09:27:44;4.90;;;4.35;;
52354;SDS011;38286;51.156;17.038;2023-04-24T09:30:11;5.25;;;3.78;;
52354;SDS011;38286;51.156;17.038;2023-04-24T09:32:37;4.18;;;3.75;;
52354;SDS011;38286;51.156;17.038;2023-04-24T09:37:36;4.43;;;3.38;;
52354;SDS011;38286;51.156;17.038;2023-04-24T09:42:39;4.43;;;3.33;;
52354;SDS011;38286;51.156;17.038;2023-04-24T09:45:08;5.70;;;3.75;;
52354;SDS011;38286;51.156;17.038;2023-04-24T09:47:37;3.90;;;3.50;;
52354;SDS011;38286;51.156;17.038;2023-04-24T09:50:13;6.07;;;4.40;;
52354;SDS011;38286;51.156;17.038;2023-04-24T09:52:45;5.47;;;4.15;;
52354;SDS011;38286;51.156;17.038;2023-04-24T09:55:16;5.13;;;4.05;;
52354;SDS011;38286;51.156;17.038;2023-04-24T09:57:51;7.50;;;4.97;;
52354;SDS011;38286;51.156;17.038;2023-04-24T10:00:18;5.07;;;4.23;;
52354;SDS011;38286;51.156;17.038;2023-04-24T10:03:23;6.32;;;4.90;;
52354;SDS011;38286;51.156;17.038;2023-04-24T10:05:41;6.40;;;4.95;;
52354;SDS011;38286;51.156;17.038;2023-04-24T10:08:09;5.97;;;5.05;;
52354;SDS011;38286;51.156;17.038;2023-04-24T10:10:40;6.53;;;5.10;;
52354;SDS011;38286;51.156;17.038;2023-04-24T10:13:08;7.18;;;5.25;;
52354;SDS011;38286;51.156;17.038;2023-04-24T10:15:35;6.78;;;5.30;;
52354;SDS011;38286;51.156;17.038;2023-04-24T10:18:04;6.40;;;5.20;;
52354;SDS011;38286;51.156;17.038;2023-04-24T10:20:31;5.28;;;4.78;;
52354;SDS011;38286;51.156;17.038;2023-04-24T10:22:59;6.35;;;5.45;;
52354;SDS011;38286;51.156;17.038;2023-04-24T10:25:26;5.78;;;5.00;;
52354;SDS011;38286;51.156;17.038;2023-04-24T10:27:55;7.30;;;5.00;;
52354;SDS011;38286;51.156;17.038;2023-04-24T10:30:23;6.43;;;4.72;;
52354;SDS011;38286;51.156;17.038;2023-04-24T10:32:49;6.97;;;4.80;;
52354;SDS011;38286;51.156;17.038;2023-04-24T10:35:15;8.90;;;4.95;;
52354;SDS011;38286;51.156;17.038;2023-04-24T10:37:48;8.25;;;5.00;;
52354;SDS011;38286;51.156;17.038;2023-04-24T10:40:17;6.47;;;4.65;;
52354;SDS011;38286;51.156;17.038;2023-04-24T10:42:48;5.03;;;4.00;;
52354;SDS011;38286;51.156;17.038;2023-04-24T10:45:18;4.47;;;3.53;;
52354;SDS011;38286;51.156;17.038;2023-04-24T10:47:53;3.13;;;2.83;;
52354;SDS011;38286;51.156;17.038;2023-04-24T10:50:22;4.63;;;3.30;;
52354;SDS011;38286;51.156;17.038;2023-04-24T10:52:48;5.43;;;3.33;;
52354;SDS011;38286;51.156;17.038;2023-04-24T10:58:09;5.00;;;3.55;;
52354;SDS011;38286;51.156;17.038;2023-04-24T11:00:36;4.65;;;3.70;;
52354;SDS011;38286;51.156;17.038;2023-04-24T11:03:22;4.90;;;3.85;;
52354;SDS011;38286;51.156;17.038;2023-04-24T11:08:22;5.88;;;4.07;;
52354;SDS011;38286;51.156;17.038;2023-04-24T11:11:00;5.40;;;4.15;;
52354;SDS011;38286;51.156;17.038;2023-04-24T11:16:24;6.00;;;4.18;;
52354;SDS011;38286;51.156;17.038;2023-04-24T11:21:43;5.63;;;4.45;;
52354;SDS011;38286;51.156;17.038;2023-04-24T11:24:24;7.90;;;4.65;;
52354;SDS011;38286;51.156;17.038;2023-04-24T11:27:05;5.03;;;4.40;;
52354;SDS011;38286;51.156;17.038;2023-04-24T11:29:39;6.00;;;4.55;;
52354;SDS011;38286;51.156;17.038;2023-04-24T11:32:19;4.90;;;4.28;;
52354;SDS011;38286;51.156;17.038;2023-04-24T11:37:41;6.50;;;5.03;;
52354;SDS011;38286;51.156;17.038;2023-04-24T11:40:09;6.32;;;4.90;;
52354;SDS011;38286;51.156;17.038;2023-04-24T11:42:36;5.70;;;4.03;;
52354;SDS011;38286;51.156;17.038;2023-04-24T11:45:07;5.70;;;4.13;;
52354;SDS011;38286;51.156;17.038;2023-04-24T11:47:34;6.13;;;4.15;;
52354;SDS011;38286;51.156;17.038;2023-04-24T11:50:01;5.75;;;3.50;;
52354;SDS011;38286;51.156;17.038;2023-04-24T11:52:27;4.60;;;3.60;;
52354;SDS011;38286;51.156;17.038;2023-04-24T11:54:54;4.70;;;4.18;;
52354;SDS011;38286;51.156;17.038;2023-04-24T11:57:20;4.28;;;3.28;;
52354;SDS011;38286;51.156;17.038;2023-04-24T11:59:48;5.85;;;3.63;;
52354;SDS011;38286;51.156;17.038;2023-04-24T12:02:21;4.63;;;3.63;;
52354;SDS011;38286;51.156;17.038;2023-04-24T12:04:48;5.75;;;4.20;;
52354;SDS011;38286;51.156;17.038;2023-04-24T12:07:14;4.20;;;3.75;;
52354;SDS011;38286;51.156;17.038;2023-04-24T12:12:14;7.38;;;4.40;;
52354;SDS011;38286;51.156;17.038;2023-04-24T12:14:49;5.13;;;4.25;;
52354;SDS011;38286;51.156;17.038;2023-04-24T12:17:17;5.50;;;4.93;;
52354;SDS011;38286;51.156;17.038;2023-04-24T12:19:50;5.53;;;4.70;;
52354;SDS011;38286;51.156;17.038;2023-04-24T12:22:16;5.82;;;4.20;;
52354;SDS011;38286;51.156;17.038;2023-04-24T12:24:55;5.88;;;4.40;;
52354;SDS011;38286;51.156;17.038;2023-04-24T12:27:26;4.93;;;3.95;;
52354;SDS011;38286;51.156;17.038;2023-04-24T12:29:55;4.03;;;3.38;;
52354;SDS011;38286;51.156;17.038;2023-04-24T12:32:22;9.05;;;4.07;;
52354;SDS011;38286;51.156;17.038;2023-04-24T12:34:54;4.63;;;3.55;;
52354;SDS011;38286;51.156;17.038;2023-04-24T12:37:24;4.40;;;3.58;;
52354;SDS011;38286;51.156;17.038;2023-04-24T12:39:58;6.03;;;3.53;;
52354;SDS011;38286;51.156;17.038;2023-04-24T12:42:26;7.05;;;3.40;;
52354;SDS011;38286;51.156;17.038;2023-04-24T12:45:03;6.78;;;4.10;;
52354;SDS011;38286;51.156;17.038;2023-04-24T12:47:31;6.28;;;4.25;;
52354;SDS011;38286;51.156;17.038;2023-04-24T12:49:58;6.15;;;3.75;;
52354;SDS011;38286;51.156;17.038;2023-04-24T12:52:25;6.35;;;4.55;;
52354;SDS011;38286;51.156;17.038;2023-04-24T12:54:55;7.43;;;5.03;;
52354;SDS011;38286;51.156;17.038;2023-04-24T12:57:23;5.35;;;4.82;;
52354;SDS011;38286;51.156;17.038;2023-04-24T12:59:49;8.13;;;5.40;;
52354;SDS011;38286;51.156;17.038;2023-04-24T13:02:16;6.35;;;4.90;;
52354;SDS011;38286;51.156;17.038;2023-04-24T13:04:46;8.30;;;5.47;;
52354;SDS011;38286;51.156;17.038;2023-04-24T13:07:12;6.78;;;4.63;;
52354;SDS011;38286;51.156;17.038;2023-04-24T13:09:40;4.80;;;3.10;;
52354;SDS011;38286;51.156;17.038;2023-04-24T13:12:07;1.90;;;1.80;;
52354;SDS011;38286;51.156;17.038;2023-04-24T13:14:34;4.30;;;1.95;;
52354;SDS011;38286;51.156;17.038;2023-04-24T13:17:00;3.70;;;1.70;;
52354;SDS011;38286;51.156;17.038;2023-04-24T13:19:26;1.73;;;1.20;;
52354;SDS011;38286;51.156;17.038;2023-04-24T13:21:53;1.83;;;1.20;;
52354;SDS011;38286;51.156;17.038;2023-04-24T13:24:21;3.83;;;1.27;;
52354;SDS011;38286;51.156;17.038;2023-04-24T13:26:51;4.72;;;1.20;;
52354;SDS011;38286;51.156;17.038;2023-04-24T13:29:18;0.90;;;0.90;;
52354;SDS011;38286;51.156;17.038;2023-04-24T13:31:45;1.10;;;1.00;;
52354;SDS011;38286;51.156;17.038;2023-04-24T13:34:12;1.92;;;1.30;;
52354;SDS011;38286;51.156;17.038;2023-04-24T13:36:38;2.92;;;1.27;;
52354;SDS011;38286;51.156;17.038;2023-04-24T13:39:05;2.65;;;1.40;;
52354;SDS011;38286;51.156;17.038;2023-04-24T13:41:32;1.95;;;1.35;;
52354;SDS011;38286;51.156;17.038;2023-04-24T13:43:58;2.28;;;1.40;;
52354;SDS011;38286;51.156;17.038;2023-04-24T13:46:24;2.17;;;1.30;;
52354;SDS011;38286;51.156;17.038;2023-04-24T13:48:51;2.47;;;1.20;;
52354;SDS011;38286;51.156;17.038;2023-04-24T13:51:17;1.38;;;1.00;;
52354;SDS011;38286;51.156;17.038;2023-04-24T13:53:43;1.05;;;0.95;;
52354;SDS011;38286;51.156;17.038;2023-04-24T13:56:10;1.60;;;1.10;;
52354;SDS011;38286;51.156;17.038;2023-04-24T13:58:37;1.95;;;1.30;;
52354;SDS011;38286;51.156;17.038;2023-04-24T14:01:04;1.90;;;1.13;;
52354;SDS011;38286;51.156;17.038;2023-04-24T14:03:30;3.22;;;1.30;;
52354;SDS011;38286;51.156;17.038;2023-04-24T14:05:56;2.45;;;1.10;;
52354;SDS011;38286;51.156;17.038;2023-04-24T14:08:23;2.17;;;1.20;;
52354;SDS011;38286;51.156;17.038;2023-04-24T14:10:49;1.95;;;1.00;;
52354;SDS011;38286;51.156;17.038;2023-04-24T14:13:16;1.52;;;0.93;;
52354;SDS011;38286;51.156;17.038;2023-04-24T14:15:42;1.63;;;1.10;;
52354;SDS011;38286;51.156;17.038;2023-04-24T14:18:08;2.35;;;1.33;;
52354;SDS011;38286;51.156;17.038;2023-04-24T14:20:34;2.28;;;1.40;;
52354;SDS011;38286;51.156;17.038;2023-04-24T14:23:00;1.83;;;1.40;;
52354;SDS011;38286;51.156;17.038;2023-04-24T14:25:26;2.40;;;1.52;;
52354;SDS011;38286;51.156;17.038;2023-04-24T14:27:52;1.98;;;1.60;;
52354;SDS011;38286;51.156;17.038;2023-04-24T14:30:18;2.25;;;1.60;;
52354;SDS011;38286;51.156;17.038;2023-04-24T14:32:44;4.57;;;1.90;;
52354;SDS011;38286;51.156;17.038;2023-04-24T14:35:11;4.25;;;2.30;;
52354;SDS011;38286;51.156;17.038;2023-04-24T14:37:37;2.72;;;1.90;;
52354;SDS011;38286;51.156;17.038;2023-04-24T14:40:03;6.88;;;2.45;;
52354;SDS011;38286;51.156;17.038;2023-04-24T14:42:32;5.18;;;2.72;;
52354;SDS011;38286;51.156;17.038;2023-04-24T14:44:58;6.20;;;2.42;;